site sitenws-alerts: Checking more than four warning/county codes can delay the loading of your pages. You should use a cron job to get the data.

Nearby METAR Weather Reports

 

KETB - West Bend Municipal Airport, West Bend, WI
Updated: 12/08/2019 6:15pm
Clear
Clear
 Wind from calm
Wind: Calm
Temperature: 32°F , 0°C
Dew Point: 30°F , -1°C
Humidity: 93%
Barometer: 29.81 inHg , 1009.5 hPa
Clouds: Clear
Visibility: 7 miles , 11 km
2019/12/09 00:15 KETB 090015Z AUTO 00000KT 7SM CLR 00/M01 A2981 RMK AO2
KOSH - Wittman Regional Airport, Oshkosh, WI
Updated: 12/08/2019 5:53pm
Clear
Clear
 Wind from calm
Wind: Calm
Temperature: 34°F , 1°C
Dew Point: 30°F , -1°C
Humidity: 87%
Barometer: 29.79 inHg , 1008.8 hPa
Clouds: Clear
Visibility: 9 miles , 14 km
2019/12/08 23:53 KOSH 082353Z 00000KT 9SM CLR 01/M01 A2979 RMK AO2 SLP097 T00111011 10056 21006 51010
 
KSBM - Sheboygan County Memorial, Sheboygan, WI
Updated: 12/08/2019 5:53pm
Clear
Clear
 Wind from calm
Wind: Calm
Temperature: 34°F , 1°C
Dew Point: 28°F , -2°C
Humidity: 81%
Barometer: 29.80 inHg , 1009.1 hPa
Clouds: Clear
Visibility: 8 miles , 13 km
2019/12/08 23:53 KSBM 082353Z AUTO 00000KT 8SM CLR 01/M02 A2980 RMK AO2 SLP100 T00061017 10044 21006 52013
KFLD - FDL County Airport, Fond du Lac, WI
Updated: 12/08/2019 5:53pm
Clear
Clear
 Wind from SSW
Wind: SSW 3 mph , 6 km/h
Temperature: 34°F , 1°C
Dew Point: 28°F , -2°C
Humidity: 81%
Barometer: 29.79 inHg , 1008.8 hPa
Clouds: Clear
Visibility: 10 miles , 16 km
2019/12/08 23:53 KFLD 082353Z AUTO 21003KT 10SM CLR 01/M02 A2979 RMK AO2 SLP096 T00111017 10072 20006 53010
 
KMKE - General Mitchell Field, Milwaukee, WI
Updated: 12/08/2019 6:23pm
Haze, Overcast
Haze, Overcast
 Wind from calm
Wind: Calm
Temperature: 41°F , 5°C
Dew Point: 36°F , 2°C
Humidity: 81%
Barometer: 29.82 inHg , 1009.8 hPa
Summary: Haze
Clouds: Overcast
Visibility: 6 miles , 10 km
Cloud details: Mostly cloudy 1700 ft
Overcast 21000 ft
2019/12/09 00:23 KMKE 090023Z 00000KT 6SM HZ BKN017 OVC210 05/02 A2982 RMK AO2 T00500017
KMSN - Truax Field, Madison, WI
Updated: 12/08/2019 5:53pm
Mostly cloudy
Mostly cloudy
 Wind from calm
Wind: Calm
Temperature: 34°F , 1°C
Dew Point: 28°F , -2°C
Humidity: 81%
Barometer: 29.79 inHg , 1008.8 hPa
Clouds: Mostly cloudy
Visibility: 10 miles , 16 km
Cloud details: Partly cloudy 22000 ft
Mostly cloudy 25000 ft
2019/12/08 23:53 KMSN 082353Z 00000KT 10SM SCT220 BKN250 01/M02 A2979 RMK AO2 SLP095 T00061017 10061 20006 53005
 
KGRB - Austin Strable Field, Green Bay, WI
Updated: 12/08/2019 5:53pm
Mist, Clear
Mist, Clear
 Wind from calm
Wind: Calm
Temperature: 30°F , -1°C
Dew Point: 27°F , -3°C
Humidity: 86%
Barometer: 29.80 inHg , 1009.1 hPa
Summary: Mist
Clouds: Clear
Visibility: 6 miles , 10 km
2019/12/08 23:53 KGRB 082353Z 00000KT 6SM BR CLR M01/M03 A2980 RMK AO2 SLP099 T10111028 10039 21011 53010
KSUW - Bong Airport, Superior, WI
Updated: 12/08/2019 6:15pm
Overcast
Overcast
 Wind from NE
Wind: NE 6 mph , 9 km/h
Temperature: 30°F , -1°C
Wind Chill: 24°F , -4°C
Dew Point: 25°F , -4°C
Humidity: 80%
Barometer: 29.86 inHg , 1011.2 hPa
Clouds: Overcast
Visibility: 10 miles , 16 km
Cloud details: Overcast 1600 ft
2019/12/09 00:15 KSUW 090015Z AUTO 05005KT 10SM OVC016 M01/M04 A2986 RMK AO2 T10071037
 
KLSE - La Crosse Municipal Airport, La Crosse, WI
Updated: 12/08/2019 5:53pm
Clear
Clear
 Wind from calm
Wind: Calm
Temperature: 28°F , -2°C
Dew Point: 25°F , -4°C
Humidity: 86%
Barometer: 29.78 inHg , 1008.5 hPa
Clouds: Clear
Visibility: 10 miles , 16 km
2019/12/08 23:53 KLSE 082353Z 00000KT 10SM CLR M02/M04 A2978 RMK AO2 SLP094 T10171039 10078 21017 51008
KIMT - Ford Field, Iron Mountain, MI
Updated: 12/08/2019 6:25pm
Light snow, Mist, Overcast
Light snow, Mist, Overcast
 Wind from NE
Wind: NE 12 mph , 19 km/h, Gust: 17 mph , 28 km/h
Temperature: 34°F , 1°C
Wind Chill: 25°F , -4°C
Dew Point: 28°F , -2°C
Humidity: 81%
Barometer: 29.79 inHg , 1008.8 hPa
Summary: Light snow, Mist
Clouds: Overcast
Visibility: 4 miles , 6 km
Cloud details: Few Clouds 800 ft
Mostly cloudy 1500 ft
Overcast 2600 ft
2019/12/09 00:25 KIMT 090025Z AUTO 05010G15KT 4SM -SN BR FEW008 BKN015 OVC026 01/M02 A2979 RMK AO2 SNB22 P0000 T00061017
 
KSAW - K.I. Sawyer Field, Marquette, MI
Updated: 12/08/2019 5:47pm
Light snow, Overcast
Light snow, Overcast
 Wind from N
Wind: N 17 mph , 28 km/h, Gust: 22 mph , 35 km/h
Temperature: 32°F , 0°C
Wind Chill: 21°F , -6°C
Dew Point: 30°F , -1°C
Humidity: 93%
Barometer: 29.79 inHg , 1008.8 hPa
Summary: Light Snow
Clouds: Overcast
Visibility: 2 miles , 3 km
Cloud details: Overcast 500 ft
2019/12/08 23:47 KSAW 082347Z 01015G19KT 2SM -SN OVC005 00/M01 A2979
KIWD - Iron County Airport, Ironwood, MI
Updated: 12/08/2019 5:56pm
Overcast
Overcast
 Wind from ENE
Wind: ENE 13 mph , 20 km/h
Temperature: 27°F , -3°C
Wind Chill: 16°F , -9°C
Dew Point: 27°F , -3°C
Humidity: 100%
Barometer: 29.82 inHg , 1009.8 hPa
Clouds: Overcast
Visibility: 7 miles , 11 km
Cloud details: Overcast 800 ft
2019/12/08 23:56 KIWD 082356Z AUTO 06011KT 7SM OVC008 M03/M03 A2982 RMK AO2 UPE51 CIG 006V011 SLP114 P0000 60000 T10281033 10011 21028 53017 FZRANO